Time;durP1;ratioP1;P1;durP2;ratioP2;P2;SDS_P1;SDS_P2;PMS_P1;PMS_P2;Temp;Humidity;BMP_temperature;BMP_pressure;BME280_temperature;BME280_humidity;BME280_pressure;Samples;Min_cycle;Max_cycle;Signal;HPM_P1;HPM_P2
2022/07/25 00:03:25;;;;;;;6.93;5.25;;;;;;;20.12;46.44;99624.38;10334404;28;20524;-83
2022/07/25 00:08:29;;;;;;;7.88;5.70;;;;;;;20.06;46.72;99617.03;10331713;28;20054;-83
2022/07/25 00:13:30;;;;;;;7.72;5.50;;;;;;;19.77;47.31;99613.88;10332661;28;20479;-83
2022/07/25 00:18:32;;;;;;;7.60;5.78;;;;;;;19.76;47.61;99612.22;10332985;28;20472;-83
2022/07/25 00:23:34;;;;;;;7.88;5.68;;;;;;;19.79;47.58;99601.28;10334372;28;20057;-83
2022/07/25 00:28:36;;;;;;;7.97;5.80;;;;;;;19.67;48.07;99598.06;10332525;28;20050;-83
2022/07/25 00:33:39;;;;;;;9.18;6.10;;;;;;;19.20;48.96;99589.66;10347994;28;20061;-83
2022/07/25 00:38:40;;;;;;;9.20;6.20;;;;;;;19.10;49.48;99583.59;10331871;28;20050;-83
2022/07/25 00:43:43;;;;;;;8.68;6.13;;;;;;;19.16;49.53;99579.50;10331956;28;20109;-83
2022/07/25 00:49:32;;;;;;;8.68;5.90;;;;;;;19.18;49.74;99577.53;10335166;28;20054;-83
2022/07/25 00:54:34;;;;;;;13.68;6.10;;;;;;;19.39;49.60;99578.00;10349519;28;20108;-83
2022/07/25 00:59:36;;;;;;;8.52;6.07;;;;;;;19.39;49.70;99576.19;10329802;28;20060;-83
2022/07/25 01:04:38;;;;;;;7.60;5.90;;;;;;;19.36;49.74;99579.16;10331799;28;20046;-83
2022/07/25 01:09:40;;;;;;;11.05;6.20;;;;;;;19.22;49.57;99579.72;10337416;28;20081;-83
2022/07/25 01:14:42;;;;;;;12.18;5.90;;;;;;;19.20;49.56;99584.34;10339350;28;20064;-83
2022/07/25 01:19:46;;;;;;;9.35;5.75;;;;;;;19.35;48.94;99569.53;10340660;28;20057;-83
2022/07/25 01:24:47;;;;;;;7.68;6.43;;;;;;;19.22;49.33;99574.41;10339873;28;20045;-82
2022/07/25 01:29:51;;;;;;;9.35;6.00;;;;;;;18.68;50.53;99574.59;10337153;28;20087;-83
2022/07/25 01:34:52;;;;;;;9.05;6.13;;;;;;;18.93;50.36;99565.06;10338473;28;21081;-83
2022/07/25 01:39:54;;;;;;;10.77;5.90;;;;;;;19.03;50.14;99566.63;10352441;28;20054;-83
2022/07/25 01:44:56;;;;;;;9.40;6.35;;;;;;;18.99;50.17;99559.94;10353033;28;20054;-83
2022/07/25 01:49:58;;;;;;;8.45;6.03;;;;;;;19.02;49.98;99557.03;10336064;28;20054;-84
2022/07/25 01:55:00;;;;;;;8.00;6.30;;;;;;;18.97;50.01;99551.31;10353123;28;20050;-83
2022/07/25 02:00:05;;;;;;;7.30;6.00;;;;;;;18.87;50.27;99537.31;10333184;28;20069;-83
2022/07/25 02:05:10;;;;;;;8.60;6.13;;;;;;;18.86;50.41;99533.03;10341160;28;20140;-83
2022/07/25 02:10:12;;;;;;;12.10;6.53;;;;;;;18.54;51.31;99532.75;10357037;28;20108;-82
2022/07/25 02:15:14;;;;;;;10.77;6.68;;;;;;;18.48;51.40;99536.00;10355443;28;20050;-83
2022/07/25 02:20:15;;;;;;;10.43;6.43;;;;;;;18.44;51.68;99537.31;10341222;28;20046;-83
2022/07/25 02:25:17;;;;;;;8.80;6.50;;;;;;;18.40;51.82;99531.44;10342034;28;20049;-83
2022/07/25 02:30:19;;;;;;;8.18;6.18;;;;;;;18.42;51.92;99528.69;10340127;28;20124;-83
2022/07/25 02:35:21;;;;;;;10.63;6.50;;;;;;;18.26;52.16;99529.31;10336705;28;20054;-83
2022/07/25 02:40:23;;;;;;;10.00;6.20;;;;;;;18.31;52.17;99531.53;10339509;28;20463;-82
2022/07/25 02:45:25;;;;;;;11.18;6.43;;;;;;;18.25;52.38;99524.19;10341858;28;20058;-83
2022/07/25 02:50:27;;;;;;;10.20;6.15;;;;;;;18.24;52.30;99519.91;10340600;28;20054;-83
2022/07/25 02:55:29;;;;;;;8.50;6.32;;;;;;;17.88;53.11;99513.66;10341669;28;20046;-83
2022/07/25 03:00:31;;;;;;;8.95;6.38;;;;;;;17.96;53.12;99507.63;10337424;28;20061;-83
2022/07/25 03:05:33;;;;;;;7.72;6.60;;;;;;;18.07;52.82;99510.06;10336249;28;20049;-83
2022/07/25 03:10:35;;;;;;;9.38;6.82;;;;;;;18.09;53.06;99506.31;10349930;28;20060;-82
2022/07/25 03:15:37;;;;;;;8.40;6.40;;;;;;;18.08;52.90;99499.34;10352220;28;20047;-83
2022/07/25 03:20:38;;;;;;;8.27;6.32;;;;;;;18.04;53.15;99502.41;10347270;28;20054;-83
2022/07/25 03:25:40;;;;;;;11.75;6.60;;;;;;;17.99;53.11;99502.88;10334763;28;20053;-83
2022/07/25 03:30:42;;;;;;;9.63;6.43;;;;;;;18.01;52.88;99497.44;10350471;28;20058;-82
2022/07/25 03:35:44;;;;;;;7.07;5.95;;;;;;;17.94;52.84;99494.56;10335109;28;20057;-82
2022/07/25 03:40:46;;;;;;;6.97;5.97;;;;;;;17.96;53.37;99483.81;10332938;28;20054;-83
2022/07/25 03:45:47;;;;;;;8.23;6.45;;;;;;;17.99;53.30;99480.88;10333488;28;20100;-83
2022/07/25 03:50:49;;;;;;;9.27;6.90;;;;;;;17.59;53.99;99475.94;10347777;28;20581;-83
2022/07/25 03:55:51;;;;;;;7.72;6.35;;;;;;;17.68;53.83;99475.06;10332470;28;20047;-83
2022/07/25 04:00:53;;;;;;;8.93;6.55;;;;;;;17.78;53.43;99473.22;10332148;28;20070;-82
2022/07/25 04:05:55;;;;;;;8.27;6.63;;;;;;;17.85;53.46;99461.88;10333070;28;20141;-83
2022/07/25 04:10:57;;;;;;;8.35;6.53;;;;;;;17.93;53.33;99468.25;10332381;28;20050;-83
2022/07/25 04:15:58;;;;;;;10.00;7.07;;;;;;;17.94;53.68;99461.97;10348825;28;20054;-82
2022/07/25 04:21:01;;;;;;;7.68;6.38;;;;;;;17.95;53.46;99463.66;10330637;28;20120;-82
2022/07/25 04:26:03;;;;;;;12.10;6.60;;;;;;;17.83;53.70;99455.91;10331958;28;20561;-82
2022/07/25 04:31:05;;;;;;;8.52;6.47;;;;;;;18.06;53.17;99456.31;10333065;28;20108;-82
2022/07/25 04:36:07;;;;;;;7.65;6.45;;;;;;;18.75;51.82;99451.13;10334334;28;20053;-82
2022/07/25 04:41:09;;;;;;;7.85;6.07;;;;;;;21.56;46.20;99431.34;10353014;28;20050;-82
2022/07/25 04:46:11;;;;;;;8.25;6.07;;;;;;;23.87;41.70;99412.56;10358652;28;20058;-83
2022/07/25 04:51:12;;;;;;;11.40;5.80;;;;;;;25.95;37.36;99403.53;10339586;28;20062;-83
2022/07/25 04:56:14;;;;;;;7.85;5.75;;;;;;;27.70;34.36;99383.97;10337678;28;20050;-84
2022/07/25 05:01:18;;;;;;;8.45;5.47;;;;;;;28.49;32.63;99382.44;10338817;28;20058;-84
2022/07/25 05:06:20;;;;;;;8.02;5.63;;;;;;;28.75;31.99;99374.13;10340565;28;20060;-84
2022/07/25 05:11:22;;;;;;;7.78;5.07;;;;;;;29.60;30.81;99373.19;10338534;28;20061;-85
2022/07/25 05:16:24;;;;;;;7.18;5.00;;;;;;;30.40;29.58;99368.28;10341059;28;20052;-84
2022/07/25 05:21:26;;;;;;;8.68;5.18;;;;;;;30.67;28.57;99364.97;10341273;28;20448;-84
2022/07/25 05:26:28;;;;;;;8.18;4.75;;;;;;;30.32;28.85;99366.78;10357598;28;20057;-85
2022/07/25 05:31:30;;;;;;;6.20;4.90;;;;;;;30.05;29.40;99372.81;10340476;28;20054;-84
2022/07/25 05:36:32;;;;;;;8.15;4.95;;;;;;;28.50;30.75;99356.38;10336083;28;20093;-84
2022/07/25 05:41:34;;;;;;;7.35;5.40;;;;;;;26.19;34.16;99361.97;10336698;28;20053;-84
2022/07/25 05:46:35;;;;;;;7.10;5.25;;;;;;;24.89;36.72;99368.47;10336499;28;20065;-83
2022/07/25 05:51:37;;;;;;;9.13;5.60;;;;;;;24.24;37.97;99358.94;10334674;28;20137;-84
2022/07/25 05:56:39;;;;;;;7.70;5.82;;;;;;;23.60;39.63;99370.56;10335797;28;20066;-83
2022/07/25 06:01:41;;;;;;;9.15;6.07;;;;;;;23.04;40.81;99365.94;10335091;28;20565;-84
2022/07/25 06:06:49;;;;;;;8.43;6.10;;;;;;;22.70;41.58;99367.25;10336090;28;20046;-83
2022/07/25 06:11:51;;;;;;;9.23;6.50;;;;;;;22.48;42.10;99372.66;10334993;28;20050;-84
2022/07/25 06:17:01;;;;;;;8.65;6.00;;;;;;;22.34;42.76;99365.47;10335431;28;20041;-84
2022/07/25 06:22:03;;;;;;;8.25;5.68;;;;;;;22.49;42.63;99359.16;10337409;28;20054;-83
2022/07/25 06:27:06;;;;;;;11.20;6.30;;;;;;;22.58;42.61;99357.22;10348293;28;20972;-84
2022/07/25 06:32:08;;;;;;;8.45;6.32;;;;;;;22.73;42.18;99349.25;10331839;28;20078;-84
2022/07/25 06:37:10;;;;;;;10.15;6.22;;;;;;;22.87;41.97;99341.28;10333490;28;20046;-83
2022/07/25 06:42:11;;;;;;;10.52;6.43;;;;;;;22.98;41.79;99340.00;10335002;28;20128;-84
2022/07/25 06:47:13;;;;;;;9.15;6.00;;;;;;;22.77;42.55;99334.56;10334585;28;20056;-83
2022/07/25 06:52:15;;;;;;;7.78;5.80;;;;;;;22.95;41.68;99337.69;10331555;28;20089;-83
2022/07/25 06:57:17;;;;;;;9.07;6.35;;;;;;;23.20;41.33;99331.06;10335219;28;20054;-83
2022/07/25 07:02:19;;;;;;;7.97;5.93;;;;;;;23.17;41.57;99321.56;10349408;28;20069;-83
2022/07/25 07:07:21;;;;;;;8.93;6.47;;;;;;;23.17;40.84;99324.25;10332259;28;20562;-83
2022/07/25 07:12:22;;;;;;;8.02;6.15;;;;;;;23.36;40.97;99313.00;10335142;28;20508;-83
2022/07/25 07:17:24;;;;;;;8.75;5.97;;;;;;;23.66;40.84;99315.56;10336808;28;20046;-83
2022/07/25 07:22:26;;;;;;;8.75;6.22;;;;;;;23.68;40.58;99309.03;10334128;28;20050;-82
2022/07/25 07:27:28;;;;;;;10.05;6.20;;;;;;;23.98;40.21;99299.06;10333153;28;20069;-83
2022/07/25 07:32:30;;;;;;;10.48;5.88;;;;;;;24.41;39.33;99295.28;10333550;28;20707;-83
2022/07/25 07:37:31;;;;;;;9.13;5.85;;;;;;;24.91;38.73;99297.72;10333113;28;20061;-83
2022/07/25 07:42:42;;;;;;;12.27;5.93;;;;;;;27.00;35.66;99280.13;10334375;28;20097;-81
2022/07/25 07:47:46;;;;;;;8.07;5.40;;;;;;;28.77;32.77;99268.94;10326297;28;20050;-81
2022/07/25 07:52:49;;;;;;;8.00;5.18;;;;;;;30.22;30.58;99257.78;10337450;28;20049;-81
2022/07/25 07:57:51;;;;;;;6.45;4.97;;;;;;;30.92;29.25;99258.56;10312595;28;20061;-81
2022/07/25 08:02:54;;;;;;;8.23;5.03;;;;;;;32.19;27.19;99241.72;10321655;28;20124;-81
2022/07/25 08:07:57;;;;;;;14.70;4.90;;;;;;;32.86;26.44;99242.41;10328143;28;20053;-81
2022/07/25 08:13:40;;;;;;;7.72;5.13;;;;;;;32.94;25.79;99244.69;10324387;28;20080;-81
2022/07/25 08:18:45;;;;;;;9.88;5.05;;;;;;;32.86;25.94;99234.28;10329164;28;20508;-81
2022/07/25 08:23:47;;;;;;;9.77;4.78;;;;;;;33.44;25.38;99233.59;10335885;28;21062;-81
2022/07/25 08:28:49;;;;;;;7.20;4.80;;;;;;;33.28;25.73;99223.66;10325528;28;20432;-81
2022/07/25 08:34:11;;;;;;;7.00;4.68;;;;;;;34.19;24.58;99209.84;10331812;28;20058;-81
2022/07/25 08:39:14;;;;;;;7.10;4.78;;;;;;;34.41;24.00;99196.97;10348427;28;20058;-81
2022/07/25 08:44:20;;;;;;;8.82;4.88;;;;;;;33.85;24.80;99200.34;10351307;28;20477;-81
2022/07/25 08:49:22;;;;;;;7.88;4.75;;;;;;;33.11;25.68;99188.53;10337417;28;20123;-81
2022/07/25 08:54:24;;;;;;;11.30;4.80;;;;;;;32.09;27.34;99190.16;10351076;28;20053;-81
2022/07/25 08:59:27;;;;;;;11.68;5.13;;;;;;;32.31;27.37;99182.91;10349759;28;20881;-81
2022/07/25 09:04:29;;;;;;;8.95;4.68;;;;;;;33.33;25.68;99183.88;10349838;28;20430;-81
2022/07/25 09:09:37;;;;;;;10.30;4.82;;;;;;;33.67;25.29;99165.50;10335512;28;20120;-81
2022/07/25 09:14:42;;;;;;;9.45;5.03;;;;;;;33.25;25.77;99162.66;10337179;28;20507;-81
2022/07/25 09:19:55;;;;;;;9.07;5.25;;;;;;;32.90;26.06;99165.00;10332504;28;20526;-81
2022/07/25 09:24:58;;;;;;;16.50;5.75;;;;;;;33.61;24.83;99150.25;10349460;28;20053;-81
2022/07/25 09:30:00;;;;;;;6.63;4.68;;;;;;;34.79;23.59;99152.31;10332341;28;20053;-81
2022/07/25 09:35:02;;;;;;;7.05;4.22;;;;;;;35.40;22.84;99150.56;10352397;28;20057;-82
2022/07/25 09:40:13;;;;;;;5.65;4.30;;;;;;;35.52;21.24;99142.13;10348138;28;20054;-81
2022/07/25 09:45:15;;;;;;;5.97;3.90;;;;;;;35.94;21.19;99139.91;10337346;28;20050;-81
2022/07/25 09:50:17;;;;;;;6.05;4.38;;;;;;;35.84;21.19;99126.34;10355745;28;20108;-81
2022/07/25 09:55:20;;;;;;;7.03;4.18;;;;;;;36.14;20.71;99118.91;10335070;28;20054;-81
2022/07/25 10:00:25;;;;;;;5.93;4.20;;;;;;;36.52;20.24;99117.44;10347145;28;20061;-80
2022/07/25 10:05:29;;;;;;;5.20;4.10;;;;;;;37.10;19.32;99106.75;10337577;28;20476;-81
2022/07/25 10:10:37;;;;;;;6.90;4.15;;;;;;;37.45;18.78;99092.84;10334057;28;20062;-81
2022/07/25 10:15:51;;;;;;;9.38;4.10;;;;;;;36.58;19.49;99089.06;10351516;28;20085;-81
2022/07/25 10:21:11;;;;;;;8.50;4.50;;;;;;;36.15;19.83;99097.94;10336240;28;20057;-81
2022/07/25 10:26:30;;;;;;;6.10;4.30;;;;;;;35.92;20.67;99088.50;10346556;28;20095;-81
2022/07/25 10:31:32;;;;;;;8.35;4.20;;;;;;;35.61;21.01;99092.31;10335825;28;20058;-81
2022/07/25 10:36:49;;;;;;;7.78;4.50;;;;;;;35.03;21.11;99099.13;10350105;28;20054;-81
2022/07/25 10:41:54;;;;;;;;;;;;;;;34.51;22.42;99129.13;10345746;28;20093;-80
2022/07/25 10:47:09;;;;;;;6.88;4.57;;;;;;;34.77;21.81;99126.50;10332058;28;19933;-81
2022/07/25 10:53:07;;;;;;;7.30;3.97;;;;;;;34.30;22.29;99127.38;10333477;28;20096;-80
2022/07/25 10:58:09;;;;;;;7.60;3.60;;;;;;;34.03;22.04;99134.03;10334442;28;20045;-81
2022/07/25 11:03:20;;;;;;;4.65;3.42;;;;;;;33.99;22.20;99141.88;10346158;28;20131;-81
2022/07/25 11:08:33;;;;;;;6.05;3.80;;;;;;;33.67;22.29;99139.19;10332310;28;20077;-81
2022/07/25 11:13:48;;;;;;;6.15;3.50;;;;;;;34.05;22.28;99140.81;10332895;28;20058;-81
2022/07/25 11:18:53;;;;;;;5.90;3.67;;;;;;;34.63;22.12;99141.66;10335829;28;20542;-81
2022/07/25 11:23:55;;;;;;;5.53;3.65;;;;;;;34.96;21.48;99136.59;10331626;28;20538;-81
2022/07/25 11:28:58;;;;;;;5.90;3.67;;;;;;;35.13;21.48;99139.09;10350003;28;20443;-81
2022/07/25 11:34:00;;;;;;;9.88;3.85;;;;;;;35.16;21.45;99133.91;10349779;28;20062;-81
2022/07/25 11:39:02;;;;;;;6.13;3.75;;;;;;;34.73;21.71;99128.94;10331693;28;20096;-81
2022/07/25 11:44:04;;;;;;;7.65;3.88;;;;;;;34.33;22.32;99126.84;10346272;28;20141;-81
2022/07/25 11:49:07;;;;;;;7.47;3.50;;;;;;;34.16;22.75;99134.38;10332510;28;20113;-80
2022/07/25 11:54:12;;;;;;;8.60;3.78;;;;;;;33.40;23.37;99145.72;10325215;28;20423;-81
2022/07/25 11:59:14;;;;;;;7.55;3.80;;;;;;;32.78;24.25;99175.94;10328317;28;20050;-81
2022/07/25 12:04:19;;;;;;;11.82;4.80;;;;;;;31.57;34.63;99200.41;10332124;28;20463;-80
2022/07/25 12:09:21;;;;;;;8.93;4.57;;;;;;;30.16;37.29;99223.66;10343985;28;20093;-80
2022/07/25 12:14:23;;;;;;;7.75;4.65;;;;;;;29.44;39.48;99230.22;10331853;28;20134;-79
2022/07/25 12:19:24;;;;;;;13.25;5.80;;;;;;;28.76;43.67;99230.44;10329415;28;20054;-79
2022/07/25 12:24:26;;;;;;;7.53;4.95;;;;;;;28.27;42.80;99212.56;10345396;28;20557;-79
2022/07/25 12:29:28;;;;;;;8.45;5.10;;;;;;;28.12;45.38;99205.88;10326580;28;20049;-79
2022/07/25 12:34:32;;;;;;;11.18;6.60;;;;;;;28.28;48.85;99199.91;10335678;28;20519;-79
2022/07/25 12:39:34;;;;;;;9.25;5.75;;;;;;;28.45;48.54;99187.56;10316515;28;20404;-79
2022/07/25 12:44:37;;;;;;;10.88;6.10;;;;;;;28.71;47.60;99189.94;10317780;28;20050;-79
2022/07/25 12:49:41;;;;;;;7.82;5.28;;;;;;;29.13;46.74;99187.34;10324908;28;20042;-79
2022/07/25 12:54:43;;;;;;;12.23;5.15;;;;;;;29.73;45.79;99187.03;10327539;28;20050;-81
2022/07/25 12:59:46;;;;;;;10.63;5.07;;;;;;;30.01;43.67;99174.78;10325013;28;20050;-81
2022/07/25 13:04:49;;;;;;;11.30;5.18;;;;;;;30.20;42.92;99152.84;10337011;28;20053;-81
2022/07/25 13:09:54;;;;;;;7.60;4.63;;;;;;;30.70;39.65;99141.47;10353837;28;20057;-80
2022/07/25 13:14:57;;;;;;;7.15;4.70;;;;;;;31.23;40.19;99147.38;10333407;28;20058;-81
2022/07/25 13:20:05;;;;;;;5.72;4.40;;;;;;;31.75;36.39;99137.97;10354895;28;20049;-79
2022/07/25 13:25:08;;;;;;;5.65;4.22;;;;;;;32.06;35.74;99132.00;10340969;28;20057;-80
2022/07/25 13:30:13;;;;;;;6.22;4.68;;;;;;;32.00;35.38;99122.16;10344170;28;20045;-79
2022/07/25 13:35:16;;;;;;;9.45;4.35;;;;;;;31.74;35.09;99120.09;10331110;28;20828;-80
2022/07/25 13:40:21;;;;;;;5.50;3.90;;;;;;;32.06;33.85;99115.75;10334683;28;20079;-82
2022/07/25 13:45:23;;;;;;;8.10;4.35;;;;;;;32.27;32.55;99122.22;10329519;28;20461;-83
2022/07/25 13:50:25;;;;;;;9.25;4.20;;;;;;;32.31;32.18;99117.16;10335687;28;20427;-83
2022/07/25 13:55:31;;;;;;;5.32;4.30;;;;;;;32.28;31.09;99114.94;10330543;28;20061;-83
2022/07/25 14:00:35;;;;;;;6.63;4.07;;;;;;;32.15;30.67;99105.28;10347018;28;20691;-83
2022/07/25 14:05:41;;;;;;;5.60;4.10;;;;;;;32.18;30.70;99086.69;10323192;28;20556;-83
2022/07/25 14:10:48;;;;;;;9.90;4.38;;;;;;;32.44;29.11;99076.16;10347342;28;20057;-84
2022/07/25 14:15:54;;;;;;;8.23;4.10;;;;;;;32.39;28.31;99070.69;10347720;28;20551;-84
2022/07/25 14:20:58;;;;;;;11.02;4.00;;;;;;;32.42;28.67;99076.41;10334545;28;20086;-84
2022/07/25 14:26:06;;;;;;;7.53;3.88;;;;;;;32.46;28.69;99071.31;10346888;28;20054;-85
2022/07/25 14:31:22;;;;;;;7.13;4.07;;;;;;;32.32;28.11;99068.19;10350300;28;20789;-84
2022/07/25 14:36:28;;;;;;;9.23;4.50;;;;;;;32.57;27.71;99057.66;10333840;28;20572;-85
2022/07/25 14:41:34;;;;;;;6.43;4.50;;;;;;;32.50;27.88;99046.22;10334408;28;20416;-84
2022/07/25 14:46:43;;;;;;;8.50;4.40;;;;;;;32.55;27.61;99046.28;10334474;28;20046;-85
2022/07/25 14:51:48;;;;;;;6.38;4.45;;;;;;;32.99;27.75;99045.09;10350669;28;20666;-85
2022/07/25 14:56:51;;;;;;;11.45;4.70;;;;;;;32.96;27.81;99039.38;10348698;28;20120;-85
2022/07/25 15:01:53;;;;;;;7.82;4.20;;;;;;;32.84;27.28;99060.38;10348151;28;20662;-85
2022/07/25 15:07:02;;;;;;;7.72;3.95;;;;;;;32.43;27.07;99061.00;10333430;28;20050;-85
2022/07/25 15:12:07;;;;;;;;;;;;;;;32.08;29.42;99089.28;10350953;28;20065;-84
2022/07/25 15:17:14;;;;;;;9.70;4.95;;;;;;;32.13;29.94;99089.31;10346989;28;19932;-83
2022/07/25 15:22:21;;;;;;;9.20;4.93;;;;;;;31.84;30.02;99104.03;10348333;28;20628;-82
2022/07/25 15:27:25;;;;;;;7.47;4.25;;;;;;;31.57;29.97;99108.50;10333272;28;20423;-81
2022/07/25 15:32:27;;;;;;;9.65;4.75;;;;;;;31.17;30.46;99102.41;10330883;28;20073;-81
2022/07/25 15:37:30;;;;;;;8.82;4.63;;;;;;;30.87;30.92;99115.34;10328337;28;20415;-81
2022/07/25 15:42:39;;;;;;;7.93;4.20;;;;;;;30.98;30.99;99123.44;10346452;28;20062;-81
2022/07/25 15:47:44;;;;;;;10.05;4.57;;;;;;;30.78;31.31;99141.09;10337478;28;20073;-81
2022/07/25 15:52:51;;;;;;;8.68;4.57;;;;;;;30.37;31.87;99164.53;10343194;28;20050;-81
2022/07/25 15:57:53;;;;;;;9.60;4.18;;;;;;;30.17;32.15;99166.78;10326471;28;20050;-82
2022/07/25 16:02:59;;;;;;;9.57;4.05;;;;;;;30.19;32.05;99180.06;10339328;28;20406;-81
2022/07/25 16:08:09;;;;;;;9.40;4.20;;;;;;;30.42;31.76;99180.00;10339453;28;20511;-81
2022/07/25 16:13:13;;;;;;;7.07;3.95;;;;;;;30.49;32.69;99211.25;10345382;28;20096;-82
2022/07/25 16:18:27;;;;;;;9.20;3.72;;;;;;;30.40;32.23;99201.00;10331901;28;20049;-81
2022/07/25 16:23:30;;;;;;;8.48;3.80;;;;;;;30.18;33.18;99203.50;10328580;28;20959;-81
2022/07/25 16:28:41;;;;;;;11.07;3.90;;;;;;;29.81;33.77;99216.34;10326824;28;20514;-81
2022/07/25 16:33:46;;;;;;;10.45;3.50;;;;;;;29.52;34.51;99224.50;10327502;28;20086;-81
2022/07/25 16:38:52;;;;;;;9.18;3.50;;;;;;;29.65;34.26;99224.28;10333077;28;20053;-81
2022/07/25 16:43:58;;;;;;;9.68;3.17;;;;;;;29.74;34.60;99225.59;10337237;28;20418;-81
2022/07/25 16:49:00;;;;;;;9.85;3.30;;;;;;;29.79;33.70;99236.50;10330042;28;20045;-81
2022/07/25 16:54:04;;;;;;;6.35;3.00;;;;;;;29.60;34.13;99245.72;10331432;28;20054;-81
2022/07/25 16:59:18;;;;;;;11.63;2.90;;;;;;;29.41;34.02;99249.53;10350336;28;20050;-81
2022/07/25 17:04:21;;;;;;;8.43;3.25;;;;;;;29.26;34.03;99257.16;10332162;28;20603;-81
2022/07/25 17:09:25;;;;;;;7.38;2.60;;;;;;;28.56;34.52;99267.53;10331926;28;20054;-81
2022/07/25 17:14:29;;;;;;;6.55;2.40;;;;;;;28.26;34.69;99266.53;10333918;28;20053;-81
2022/07/25 17:19:34;;;;;;;6.03;2.40;;;;;;;27.95;35.00;99272.81;10332173;28;20068;-81
2022/07/25 17:24:38;;;;;;;11.20;2.42;;;;;;;27.72;35.49;99291.41;10337970;28;20177;-81
2022/07/25 17:29:43;;;;;;;7.53;2.20;;;;;;;27.48;36.01;99305.56;10351898;28;20923;-80
2022/07/25 17:34:48;;;;;;;8.68;2.60;;;;;;;27.23;36.36;99321.59;10353022;28;20045;-81
2022/07/25 17:39:50;;;;;;;14.10;2.55;;;;;;;27.00;36.58;99317.72;10349047;28;20057;-81
2022/07/25 17:44:53;;;;;;;10.77;2.47;;;;;;;26.77;37.37;99337.00;10330050;28;20069;-81
2022/07/25 17:49:55;;;;;;;6.55;2.28;;;;;;;26.54;37.30;99331.22;10333424;28;20054;-79
2022/07/25 17:54:57;;;;;;;8.02;2.25;;;;;;;26.34;37.98;99344.66;10347071;28;20050;-80
2022/07/25 17:59:59;;;;;;;11.57;2.40;;;;;;;26.07;38.36;99347.53;10346813;28;20053;-80
2022/07/25 18:05:04;;;;;;;9.13;2.53;;;;;;;25.92;38.22;99349.53;10336260;28;20065;-80
2022/07/25 18:10:07;;;;;;;8.30;2.42;;;;;;;25.86;38.70;99352.00;10332554;28;20057;-80
2022/07/25 18:15:11;;;;;;;9.10;2.58;;;;;;;25.85;38.96;99346.84;10350881;28;20058;-80
2022/07/25 18:20:17;;;;;;;10.43;2.67;;;;;;;25.85;38.94;99355.69;10335275;28;20100;-80
2022/07/25 18:25:19;;;;;;;8.93;2.45;;;;;;;25.83;39.34;99363.09;10349060;28;20057;-79
2022/07/25 18:30:24;;;;;;;12.65;2.38;;;;;;;25.77;39.50;99374.63;10334006;28;20428;-79
2022/07/25 18:35:33;;;;;;;6.47;2.30;;;;;;;25.48;40.16;99361.59;10330710;28;20071;-80
2022/07/25 18:40:36;;;;;;;6.45;2.30;;;;;;;25.40;39.83;99364.44;10330141;28;20190;-80
2022/07/25 18:45:38;;;;;;;13.55;2.80;;;;;;;25.31;40.43;99367.44;10331161;28;20050;-81
2022/07/25 18:50:40;;;;;;;11.68;2.40;;;;;;;25.28;40.52;99378.56;10343140;28;20042;-80
2022/07/25 18:55:42;;;;;;;7.93;2.40;;;;;;;25.14;40.93;99371.50;10345253;28;21125;-81
2022/07/25 19:00:44;;;;;;;11.35;2.63;;;;;;;25.04;40.79;99371.84;10343867;28;20804;-80
2022/07/25 19:05:47;;;;;;;7.75;2.30;;;;;;;24.93;41.17;99378.59;10348975;28;20049;-80
2022/07/25 19:10:49;;;;;;;6.50;2.20;;;;;;;24.86;41.71;99380.38;10332297;28;20108;-80
2022/07/25 19:15:52;;;;;;;7.63;2.28;;;;;;;24.86;42.02;99390.25;10322349;28;20505;-80
2022/07/25 19:20:55;;;;;;;11.10;2.25;;;;;;;24.80;42.45;99402.56;10336810;28;20971;-80
2022/07/25 19:26:00;;;;;;;8.57;2.42;;;;;;;24.70;42.67;99406.56;10329287;28;20060;-80
2022/07/25 19:31:02;;;;;;;12.00;2.45;;;;;;;24.57;42.81;99412.63;10322743;28;20051;-80
2022/07/25 19:36:06;;;;;;;8.23;2.60;;;;;;;24.28;43.29;99419.00;10346764;28;20050;-80
2022/07/25 19:41:09;;;;;;;11.95;2.70;;;;;;;24.23;43.20;99434.75;10332058;28;20053;-80
2022/07/25 19:46:10;;;;;;;10.52;2.95;;;;;;;24.34;43.18;99432.59;10331577;28;20703;-80
2022/07/25 19:51:12;;;;;;;8.43;2.35;;;;;;;24.39;43.56;99451.56;10333356;28;20064;-80
2022/07/25 19:56:14;;;;;;;9.32;2.55;;;;;;;24.37;43.93;99448.25;10333378;28;20057;-79
2022/07/25 20:01:16;;;;;;;11.95;2.60;;;;;;;24.29;43.87;99452.69;10328723;28;20061;-79
2022/07/25 20:06:19;;;;;;;5.80;2.30;;;;;;;24.24;43.28;99457.81;10330521;28;20099;-79
2022/07/25 20:11:21;;;;;;;7.97;2.47;;;;;;;24.17;43.40;99464.91;10355554;28;20656;-79
2022/07/25 20:16:23;;;;;;;10.25;2.40;;;;;;;24.08;43.69;99460.69;10360822;28;20058;-79
2022/07/25 20:21:25;;;;;;;11.27;2.30;;;;;;;23.97;43.46;99469.19;10337084;28;20567;-79
2022/07/25 20:26:27;;;;;;;6.63;2.42;;;;;;;23.93;43.03;99469.75;10343505;28;20056;-79
2022/07/25 20:31:28;;;;;;;6.80;2.30;;;;;;;23.98;43.45;99475.38;10343715;28;20050;-79
2022/07/25 20:36:30;;;;;;;9.57;2.50;;;;;;;23.94;43.22;99480.22;10343631;28;20057;-79
2022/07/25 20:41:32;;;;;;;6.97;2.40;;;;;;;23.97;42.70;99495.06;10338642;28;20061;-79
2022/07/25 20:46:35;;;;;;;8.25;2.40;;;;;;;23.89;43.34;99504.03;10360374;28;20050;-78
2022/07/25 20:51:40;;;;;;;4.40;2.17;;;;;;;23.76;42.62;99517.19;10341173;28;20145;-78
2022/07/25 20:56:43;;;;;;;8.43;2.70;;;;;;;23.71;43.32;99516.09;10344524;28;20161;-78
2022/07/25 21:01:45;;;;;;;6.75;2.38;;;;;;;23.61;43.01;99532.41;10357891;28;20974;-78
2022/07/25 21:06:47;;;;;;;9.48;2.40;;;;;;;23.49;42.64;99547.22;10340863;28;21047;-78
2022/07/25 21:11:49;;;;;;;9.30;2.20;;;;;;;23.41;43.06;99550.78;10344942;28;20057;-79
2022/07/25 21:16:51;;;;;;;9.45;2.47;;;;;;;23.30;43.56;99561.06;10357539;28;20046;-79
2022/07/25 21:21:53;;;;;;;12.07;2.53;;;;;;;23.13;43.68;99564.88;10336217;28;20152;-79
2022/07/25 21:26:55;;;;;;;7.88;2.38;;;;;;;23.02;43.82;99582.16;10334370;28;20085;-78
2022/07/25 21:31:56;;;;;;;7.63;2.47;;;;;;;22.85;44.69;99585.97;10334110;28;20062;-79
2022/07/25 21:36:59;;;;;;;11.40;2.50;;;;;;;22.70;44.72;99591.19;10334792;28;20046;-79
2022/07/25 21:42:03;;;;;;;6.60;2.40;;;;;;;22.67;44.30;99601.41;10334896;28;20068;-79
2022/07/25 21:47:05;;;;;;;7.75;2.55;;;;;;;22.56;44.29;99610.63;10334864;28;20463;-79
2022/07/25 21:52:09;;;;;;;10.23;2.47;;;;;;;22.44;44.14;99605.84;10334297;28;20104;-79
2022/07/25 21:57:16;;;;;;;8.65;2.50;;;;;;;22.35;44.55;99617.59;10335065;28;20053;-79
2022/07/25 22:02:18;;;;;;;9.68;2.45;;;;;;;22.26;44.36;99619.44;10336295;28;20117;-78
2022/07/25 22:07:21;;;;;;;8.60;2.50;;;;;;;22.23;44.13;99627.78;10332277;28;20050;-79
2022/07/25 22:12:22;;;;;;;9.40;2.30;;;;;;;22.19;43.56;99626.47;10336153;28;20045;-79
2022/07/25 22:17:24;;;;;;;10.40;2.63;;;;;;;22.11;43.82;99636.34;10351798;28;20053;-79
2022/07/25 22:22:26;;;;;;;7.15;2.15;;;;;;;22.09;44.29;99649.00;10337224;28;20496;-79
2022/07/25 22:27:28;;;;;;;6.07;2.55;;;;;;;22.03;44.29;99645.16;10334959;28;20046;-78
2022/07/25 22:32:30;;;;;;;7.85;2.42;;;;;;;21.95;44.48;99645.16;10335693;28;20054;-78
2022/07/25 22:37:32;;;;;;;8.98;2.72;;;;;;;21.83;44.52;99650.03;10334663;28;20057;-79
2022/07/25 22:42:33;;;;;;;6.68;3.08;;;;;;;21.73;45.99;99657.38;10332689;28;20107;-78
2022/07/25 22:47:35;;;;;;;8.05;3.40;;;;;;;21.60;47.58;99664.19;10334671;28;20085;-78
2022/07/25 22:52:37;;;;;;;8.63;2.90;;;;;;;21.47;47.55;99664.72;10331998;28;20464;-77
2022/07/25 22:57:39;;;;;;;6.25;2.65;;;;;;;21.38;47.59;99664.88;10352275;28;20047;-77
2022/07/25 23:02:41;;;;;;;8.15;2.55;;;;;;;21.13;47.95;99661.34;10350536;28;20107;-77
2022/07/25 23:07:42;;;;;;;6.03;2.80;;;;;;;21.01;48.32;99666.16;10334594;28;20067;-77
2022/07/25 23:12:45;;;;;;;6.95;2.75;;;;;;;20.83;48.61;99662.81;10332598;28;20058;-77
2022/07/25 23:17:47;;;;;;;9.30;2.78;;;;;;;20.70;48.69;99659.78;10332894;28;20049;-77
2022/07/25 23:22:49;;;;;;;9.00;2.85;;;;;;;20.50;49.61;99649.59;10348179;28;21323;-77
2022/07/25 23:27:57;;;;;;;5.80;2.67;;;;;;;20.39;49.45;99655.19;10331759;28;20050;-78
2022/07/25 23:32:59;;;;;;;7.93;2.70;;;;;;;20.29;49.69;99663.28;10347889;28;20081;-77